createdAt,value
2023-04-22T00:00:09.089Z,53.34
2023-04-22T00:02:38.732Z,52.56
2023-04-22T00:05:07.198Z,53.38
2023-04-22T00:07:36.138Z,52.77
2023-04-22T00:10:04.161Z,52.35
2023-04-22T00:12:31.997Z,53.35
2023-04-22T00:14:59.466Z,52.55
2023-04-22T00:17:26.897Z,53.09
2023-04-22T00:19:54.490Z,51.89
2023-04-22T00:22:21.923Z,52.04
2023-04-22T00:24:50.628Z,51.78
2023-04-22T00:27:18.614Z,53.14
2023-04-22T00:29:45.998Z,52.51
2023-04-22T00:32:13.430Z,51.73
2023-04-22T00:34:40.814Z,51.71
2023-04-22T00:37:08.299Z,52.46
2023-04-22T00:39:39.240Z,52.85
2023-04-22T00:42:08.571Z,52.24
2023-04-22T00:44:37.239Z,51.31
2023-04-22T00:47:06.553Z,52.84
2023-04-22T00:49:36.077Z,52.62
2023-04-22T00:52:03.560Z,51.67
2023-04-22T00:54:32.041Z,52.47
2023-04-22T00:56:59.833Z,52.09
2023-04-22T00:59:28.745Z,52.20
2023-04-22T01:01:57.136Z,53.14
2023-04-22T01:04:25.668Z,52.32
2023-04-22T01:06:53.927Z,53.02
2023-04-22T01:09:21.664Z,52.81
2023-04-22T01:11:49.080Z,51.57
2023-04-22T01:14:17.040Z,52.35
2023-04-22T01:16:46.242Z,52.11
2023-04-22T01:19:13.791Z,52.15
2023-04-22T01:21:41.673Z,52.03
2023-04-22T01:24:10.595Z,52.28
2023-04-22T01:26:38.659Z,53.40
2023-04-22T01:29:06.624Z,55.08
2023-04-22T01:31:34.654Z,52.55
2023-04-22T01:34:02.516Z,52.67
2023-04-22T01:36:30.109Z,52.21
2023-04-22T01:38:57.678Z,53.62
2023-04-22T01:41:26.775Z,53.65
2023-04-22T01:43:54.691Z,54.24
2023-04-22T01:46:22.152Z,52.83
2023-04-22T01:48:51.641Z,53.04
2023-04-22T01:51:20.355Z,52.98
2023-04-22T01:53:48.251Z,53.83
2023-04-22T01:56:15.836Z,52.98
2023-04-22T01:58:45.052Z,52.63
2023-04-22T02:01:13.734Z,53.99
2023-04-22T02:03:41.515Z,54.22
2023-04-22T02:06:09.103Z,52.66
2023-04-22T02:08:36.537Z,54.62
2023-04-22T02:11:03.985Z,53.47
2023-04-22T02:13:36.516Z,53.14
2023-04-22T02:16:06.342Z,52.76
2023-04-22T02:18:34.111Z,52.21
2023-04-22T02:21:01.686Z,53.63
2023-04-22T02:23:29.751Z,53.61
2023-04-22T02:25:57.343Z,52.29
2023-04-22T02:28:24.739Z,53.75
2023-04-22T02:30:52.134Z,54.54
2023-04-22T02:33:20.885Z,53.74
2023-04-22T02:35:48.611Z,54.82
2023-04-22T02:38:16.293Z,55.68
2023-04-22T02:40:43.736Z,53.54
2023-04-22T02:43:11.146Z,55.57
2023-04-22T02:45:38.675Z,54.84
2023-04-22T02:48:06.265Z,54.73
2023-04-22T02:50:35.001Z,53.75
2023-04-22T02:53:02.476Z,54.71
2023-04-22T02:55:30.404Z,55.42
2023-04-22T02:57:57.836Z,54.70
2023-04-22T03:00:25.479Z,53.90
2023-04-22T03:02:53.524Z,54.73
2023-04-22T03:05:21.137Z,55.18
2023-04-22T03:07:49.933Z,54.10
2023-04-22T03:10:17.387Z,54.80
2023-04-22T03:12:44.830Z,54.55
2023-04-22T03:15:12.989Z,55.91
2023-04-22T03:17:40.476Z,55.82
2023-04-22T03:20:08.785Z,55.82
2023-04-22T03:22:36.249Z,54.70
2023-04-22T03:25:06.312Z,56.00
2023-04-22T03:27:33.790Z,55.44
2023-04-22T03:30:01.237Z,54.76
2023-04-22T03:32:28.767Z,55.55
2023-04-22T03:34:56.195Z,55.83
2023-04-22T03:37:23.773Z,55.10
2023-04-22T03:39:51.166Z,55.20
2023-04-22T03:42:19.953Z,55.43
2023-04-22T03:44:47.353Z,56.10
2023-04-22T03:47:14.906Z,57.16
2023-04-22T03:49:43.964Z,57.20
2023-04-22T03:52:11.388Z,55.39
2023-04-22T03:54:38.807Z,55.65
2023-04-22T03:57:06.293Z,57.92
2023-04-22T03:59:35.013Z,58.09
2023-04-22T04:02:02.642Z,55.88
2023-04-22T04:04:30.650Z,55.52
2023-04-22T04:06:58.315Z,55.79
2023-04-22T04:09:25.782Z,55.78
2023-04-22T04:11:53.210Z,56.19
2023-04-22T04:14:20.672Z,56.07
2023-04-22T04:16:49.515Z,55.56
2023-04-22T04:19:16.972Z,54.96
2023-04-22T04:21:44.378Z,54.81
2023-04-22T04:24:11.795Z,55.14
2023-04-22T04:26:39.307Z,56.16
2023-04-22T04:29:06.810Z,55.72
2023-04-22T04:31:35.304Z,55.49
2023-04-22T04:34:04.282Z,54.43
2023-04-22T04:36:32.785Z,53.54
2023-04-22T04:39:00.220Z,55.79
2023-04-22T04:41:28.186Z,54.55
2023-04-22T04:43:56.285Z,54.04
2023-04-22T04:46:23.826Z,53.33
2023-04-22T04:48:51.731Z,55.83
2023-04-22T04:51:20.765Z,54.94
2023-04-22T04:53:48.182Z,54.26
2023-04-22T04:56:16.790Z,54.93
2023-04-22T04:58:44.207Z,53.80
2023-04-22T05:01:11.688Z,54.34
2023-04-22T05:03:39.362Z,53.65
2023-04-22T05:06:08.239Z,53.19
2023-04-22T05:08:36.958Z,52.65
2023-04-22T05:11:04.360Z,52.55
2023-04-22T05:13:31.758Z,52.20
2023-04-22T05:15:59.789Z,51.90
2023-04-22T05:18:27.362Z,51.43
2023-04-22T05:20:54.764Z,51.07
2023-04-22T05:23:22.168Z,51.49
2023-04-22T05:25:53.271Z,51.61
2023-04-22T05:28:20.922Z,50.02
2023-04-22T05:30:48.310Z,48.61
2023-04-22T05:33:15.853Z,49.68
2023-04-22T05:35:43.389Z,46.34
2023-04-22T05:38:11.041Z,43.05
2023-04-22T05:40:39.382Z,41.69
2023-04-22T05:43:08.119Z,44.51
2023-04-22T05:45:35.806Z,45.74
2023-04-22T05:48:03.453Z,42.28
2023-04-22T05:50:30.978Z,40.79
2023-04-22T05:52:58.388Z,40.82
2023-04-22T05:55:25.826Z,39.54
2023-04-22T05:57:53.242Z,39.87
2023-04-22T06:00:22.036Z,39.17
2023-04-22T06:02:49.686Z,38.78
2023-04-22T06:05:17.443Z,40.91
2023-04-22T06:07:45.381Z,40.24
2023-04-22T06:10:12.839Z,40.00
2023-04-22T06:12:40.741Z,37.25
2023-04-22T06:15:09.001Z,37.53
2023-04-22T06:17:37.878Z,40.50
2023-04-22T06:20:06.590Z,43.05
2023-04-22T06:22:34.023Z,44.15
2023-04-22T06:25:01.471Z,45.35
2023-04-22T06:27:28.892Z,45.70
2023-04-22T06:29:56.274Z,46.45
2023-04-22T06:32:23.755Z,47.35
2023-04-22T06:34:52.464Z,50.16
2023-04-22T06:37:19.878Z,52.32
2023-04-22T06:39:47.334Z,49.24
2023-04-22T06:42:14.752Z,49.60
2023-04-22T06:44:42.438Z,48.98
2023-04-22T06:47:09.853Z,51.10
2023-04-22T06:49:39.608Z,51.92
2023-04-22T06:52:08.738Z,51.17
2023-04-22T06:54:36.156Z,50.92
2023-04-22T06:57:03.639Z,52.49
2023-04-22T06:59:31.098Z,51.10
2023-04-22T07:01:58.524Z,52.99
2023-04-22T07:04:27.621Z,50.27
2023-04-22T07:06:55.279Z,51.68
2023-04-22T07:09:24.007Z,49.65
2023-04-22T07:11:51.428Z,50.06
2023-04-22T07:14:18.986Z,50.76
2023-04-22T07:16:47.435Z,49.86
2023-04-22T07:19:14.949Z,49.97
2023-04-22T07:21:42.368Z,50.19
2023-04-22T07:24:12.112Z,51.64
2023-04-22T07:26:42.084Z,51.05
2023-04-22T07:29:09.713Z,49.42
2023-04-22T07:31:37.410Z,50.54
2023-04-22T07:34:04.900Z,50.47
2023-04-22T07:36:33.168Z,50.33
2023-04-22T07:39:00.722Z,49.82
2023-04-22T07:41:28.160Z,50.10
2023-04-22T07:43:56.866Z,48.67
2023-04-22T07:46:24.555Z,50.59
2023-04-22T07:48:52.075Z,62.44
2023-04-22T07:51:19.513Z,50.62
2023-04-22T07:53:46.942Z,54.92
2023-04-22T07:56:14.698Z,52.16
2023-04-22T07:58:42.119Z,49.01
2023-04-22T08:01:11.258Z,50.55
2023-04-22T08:03:38.887Z,53.44
2023-04-22T08:06:07.094Z,51.19
2023-04-22T08:08:34.493Z,48.26
2023-04-22T08:11:01.927Z,49.25
2023-04-22T08:13:29.368Z,48.09
2023-04-22T08:15:56.841Z,47.94
2023-04-22T08:18:25.648Z,47.84
2023-04-22T08:20:54.224Z,48.85
2023-04-22T08:23:21.683Z,50.97
2023-04-22T08:25:50.019Z,47.52
2023-04-22T08:28:17.583Z,47.41
2023-04-22T08:30:45.035Z,46.79
2023-04-22T08:33:12.806Z,46.87
2023-04-22T08:35:41.913Z,47.35
2023-04-22T08:38:09.346Z,47.65
2023-04-22T08:40:36.867Z,47.47
2023-04-22T08:43:05.262Z,47.21
2023-04-22T08:45:33.027Z,47.50
2023-04-22T08:48:01.531Z,47.74
2023-04-22T08:50:30.008Z,46.50
2023-04-22T08:52:58.746Z,46.33
2023-04-22T08:55:27.496Z,45.52
2023-04-22T08:57:55.497Z,45.32
2023-04-22T09:00:22.948Z,46.70
2023-04-22T09:02:51.629Z,45.11
2023-04-22T09:05:20.172Z,45.27
2023-04-22T09:07:47.816Z,46.36
2023-04-22T09:10:16.621Z,44.83
2023-04-22T09:12:44.024Z,45.58
2023-04-22T09:15:12.754Z,45.73
2023-04-22T09:17:41.319Z,46.50
2023-04-22T09:20:09.780Z,46.11
2023-04-22T09:22:41.668Z,46.75
2023-04-22T09:25:18.316Z,46.75
2023-04-22T09:27:49.716Z,46.07
2023-04-22T09:30:19.481Z,47.09
2023-04-22T09:32:54.674Z,45.90
2023-04-22T09:35:31.689Z,45.83
2023-04-22T09:38:00.647Z,45.10
2023-04-22T09:40:30.927Z,45.99
2023-04-22T09:43:01.612Z,47.10
2023-04-22T09:45:31.037Z,44.91
2023-04-22T09:48:04.616Z,45.07
2023-04-22T09:50:32.023Z,43.95
2023-04-22T09:53:01.919Z,44.66
2023-04-22T09:55:33.995Z,44.95
2023-04-22T09:58:07.062Z,44.32
2023-04-22T10:00:41.122Z,44.03
2023-04-22T10:03:10.705Z,43.38
2023-04-22T10:05:38.900Z,42.80
2023-04-22T10:08:07.715Z,45.02
2023-04-22T10:10:37.639Z,46.56
2023-04-22T10:13:06.688Z,44.51
2023-04-22T10:15:36.684Z,45.49
2023-04-22T10:18:07.673Z,44.64
2023-04-22T10:20:38.678Z,44.51
2023-04-22T10:23:07.054Z,44.19
2023-04-22T10:25:35.758Z,42.60
2023-04-22T10:28:05.236Z,42.52
2023-04-22T10:30:34.498Z,42.94
2023-04-22T10:33:36.669Z,44.60
2023-04-22T10:36:09.053Z,42.45
2023-04-22T10:38:36.811Z,42.06
2023-04-22T10:41:05.895Z,42.29
2023-04-22T10:43:42.301Z,41.58
2023-04-22T10:46:54.572Z,41.76
2023-04-22T10:49:23.450Z,41.85
2023-04-22T10:51:52.410Z,41.01
2023-04-22T10:54:58.405Z,40.84
2023-04-22T10:57:37.353Z,40.61
2023-04-22T11:00:42.159Z,39.31
2023-04-22T11:03:25.617Z,39.53
2023-04-22T11:06:18.605Z,39.39
2023-04-22T11:08:47.409Z,39.54
2023-04-22T11:11:14.864Z,38.66
2023-04-22T11:13:43.686Z,38.59
2023-04-22T11:16:11.705Z,39.42
2023-04-22T11:18:39.678Z,39.79
2023-04-22T11:21:08.794Z,39.01
2023-04-22T11:23:37.570Z,39.78
2023-04-22T11:26:07.422Z,39.26
2023-04-22T11:28:34.912Z,39.91
2023-04-22T11:31:03.592Z,41.02
2023-04-22T11:33:31.103Z,40.43
2023-04-22T11:35:58.780Z,41.01
2023-04-22T11:38:26.226Z,39.81
2023-04-22T11:40:57.730Z,39.65
2023-04-22T11:43:25.535Z,39.38
2023-04-22T11:45:53.119Z,39.39
2023-04-22T11:48:20.552Z,39.08
2023-04-22T11:50:48.507Z,40.43
2023-04-22T11:53:17.892Z,39.25
2023-04-22T11:55:47.050Z,39.10
2023-04-22T11:58:17.487Z,40.32
2023-04-22T12:00:47.824Z,39.55
2023-04-22T12:03:17.375Z,39.51
2023-04-22T12:05:47.059Z,38.88
2023-04-22T12:08:17.198Z,39.05
2023-04-22T12:10:46.544Z,38.65
2023-04-22T12:13:22.367Z,38.28
2023-04-22T12:15:54.362Z,38.52
2023-04-22T12:18:29.593Z,38.19
2023-04-22T12:21:00.483Z,38.21
2023-04-22T12:23:28.431Z,38.15
2023-04-22T12:25:55.858Z,37.64
2023-04-22T12:28:24.611Z,38.69
2023-04-22T12:30:52.154Z,37.60
2023-04-22T12:33:19.592Z,37.62
2023-04-22T12:35:48.794Z,36.75
2023-04-22T12:38:16.356Z,37.34
2023-04-22T12:40:43.766Z,38.30
2023-04-22T12:43:11.271Z,38.26
2023-04-22T12:45:40.010Z,37.31
2023-04-22T12:48:07.414Z,37.08
2023-04-22T12:50:34.854Z,37.11
2023-04-22T12:53:02.246Z,36.72
2023-04-22T12:55:30.542Z,36.85
2023-04-22T12:57:58.067Z,36.74
2023-04-22T13:00:25.971Z,35.75
2023-04-22T13:02:54.783Z,36.34
2023-04-22T13:05:22.384Z,35.83
2023-04-22T13:07:56.408Z,35.71
2023-04-22T13:10:31.313Z,36.20
2023-04-22T13:13:06.370Z,35.76
2023-04-22T13:15:44.021Z,35.95
2023-04-22T13:18:12.849Z,35.68
2023-04-22T13:20:41.772Z,36.95
2023-04-22T13:23:09.660Z,36.96
2023-04-22T13:25:37.224Z,36.89
2023-04-22T13:28:04.671Z,36.74
2023-04-22T13:30:32.144Z,37.25
2023-04-22T13:32:59.551Z,37.17
2023-04-22T13:35:28.450Z,38.27
2023-04-22T13:37:56.101Z,37.78
2023-04-22T13:40:23.494Z,38.41
2023-04-22T13:42:51.010Z,37.52
2023-04-22T13:45:18.693Z,38.26
2023-04-22T13:47:46.132Z,37.89
2023-04-22T13:50:13.556Z,37.65
2023-04-22T13:52:42.618Z,38.96
2023-04-22T13:55:10.699Z,39.08
2023-04-22T13:57:38.170Z,39.03
2023-04-22T14:00:06.748Z,38.48
2023-04-22T14:02:34.308Z,38.30
2023-04-22T14:05:02.228Z,37.72
2023-04-22T14:07:29.639Z,39.15
2023-04-22T14:09:58.377Z,38.85
2023-04-22T14:12:25.907Z,38.37
2023-04-22T14:14:53.313Z,38.93
2023-04-22T14:17:22.497Z,39.30
2023-04-22T14:19:49.900Z,37.85
2023-04-22T14:22:17.308Z,37.76
2023-04-22T14:24:44.737Z,38.25
2023-04-22T14:27:13.440Z,38.08
2023-04-22T14:29:41.358Z,37.16
2023-04-22T14:32:09.172Z,38.19
2023-04-22T14:34:36.571Z,38.05
2023-04-22T14:37:04.010Z,38.06
2023-04-22T14:39:31.430Z,37.24
2023-04-22T14:41:58.856Z,37.83
2023-04-22T14:44:27.832Z,37.17
2023-04-22T14:46:55.254Z,38.37
2023-04-22T14:49:22.756Z,38.45
2023-04-22T14:51:50.378Z,37.73
2023-04-22T14:54:17.790Z,38.29
2023-04-22T14:56:45.191Z,38.45
2023-04-22T14:59:12.606Z,38.70
2023-04-22T15:01:43.039Z,38.39
2023-04-22T15:04:12.693Z,37.87
2023-04-22T15:06:40.308Z,37.76
2023-04-22T15:09:07.998Z,37.57
2023-04-22T15:11:35.463Z,38.55
2023-04-22T15:14:02.930Z,37.42
2023-04-22T15:16:31.052Z,37.01
2023-04-22T15:19:00.540Z,37.32
2023-04-22T15:21:27.994Z,38.26
2023-04-22T15:23:55.449Z,37.74
2023-04-22T15:26:22.890Z,38.61
2023-04-22T15:28:51.482Z,37.70
2023-04-22T15:31:19.553Z,38.25
2023-04-22T15:33:47.032Z,37.88
2023-04-22T15:36:18.114Z,37.19
2023-04-22T15:38:45.555Z,37.57
2023-04-22T15:41:12.990Z,37.89
2023-04-22T15:43:40.604Z,37.72
2023-04-22T15:46:08.475Z,37.42
2023-04-22T15:48:35.913Z,37.73
2023-04-22T15:51:03.356Z,36.67
2023-04-22T15:53:32.101Z,36.78
2023-04-22T15:55:59.526Z,37.66
2023-04-22T15:58:28.904Z,37.88
2023-04-22T16:01:07.673Z,37.28
2023-04-22T16:03:45.415Z,37.18
2023-04-22T16:06:13.141Z,37.27
2023-04-22T16:08:41.865Z,37.68
2023-04-22T16:11:09.426Z,36.84
2023-04-22T16:13:38.784Z,37.30
2023-04-22T16:16:06.638Z,38.02
2023-04-22T16:18:34.193Z,37.02
2023-04-22T16:21:02.222Z,37.32
2023-04-22T16:23:29.689Z,36.67
2023-04-22T16:25:58.740Z,36.32
2023-04-22T16:28:26.178Z,36.08
2023-04-22T16:30:53.622Z,36.04
2023-04-22T16:33:21.045Z,36.56
2023-04-22T16:35:48.449Z,36.72
2023-04-22T16:38:16.566Z,37.25
2023-04-22T16:40:44.003Z,37.28
2023-04-22T16:43:12.965Z,37.08
2023-04-22T16:45:40.503Z,37.44
2023-04-22T16:48:07.941Z,37.67
2023-04-22T16:50:35.510Z,37.48
2023-04-22T16:53:02.902Z,38.44
2023-04-22T16:55:30.301Z,36.95
2023-04-22T16:58:00.860Z,37.29
2023-04-22T17:00:30.512Z,37.21
2023-04-22T17:02:58.132Z,37.52
2023-04-22T17:05:25.644Z,37.82
2023-04-22T17:07:53.048Z,38.33
2023-04-22T17:10:20.652Z,38.02
2023-04-22T17:12:48.084Z,37.22
2023-04-22T17:15:15.584Z,39.10
2023-04-22T17:17:44.358Z,38.90
2023-04-22T17:20:12.316Z,38.85
2023-04-22T17:22:39.762Z,38.72
2023-04-22T17:25:08.567Z,39.08
2023-04-22T17:27:35.982Z,39.41
2023-04-22T17:30:03.446Z,38.82
2023-04-22T17:32:30.967Z,39.18
2023-04-22T17:34:59.780Z,40.25
2023-04-22T17:37:27.222Z,40.42
2023-04-22T17:39:56.238Z,40.45
2023-04-22T17:42:25.288Z,40.14
2023-04-22T17:45:00.040Z,39.76
2023-04-22T17:47:27.609Z,39.69
2023-04-22T17:49:55.096Z,40.10
2023-04-22T17:52:24.233Z,40.83
2023-04-22T17:54:52.084Z,40.51
2023-04-22T17:57:19.511Z,41.89
2023-04-22T17:59:46.943Z,41.43
2023-04-22T18:02:15.162Z,41.64
2023-04-22T18:04:42.755Z,41.72
2023-04-22T18:07:10.216Z,42.52
2023-04-22T18:09:39.328Z,41.81
2023-04-22T18:12:07.026Z,42.64
2023-04-22T18:14:34.489Z,43.28
2023-04-22T18:17:02.735Z,43.23
2023-04-22T18:19:30.252Z,43.93
2023-04-22T18:22:00.404Z,45.00
2023-04-22T18:24:28.218Z,43.89
2023-04-22T18:26:56.985Z,44.02
2023-04-22T18:29:24.412Z,43.59
2023-04-22T18:31:51.886Z,44.38
2023-04-22T18:34:19.509Z,44.71
2023-04-22T18:36:47.037Z,43.55
2023-04-22T18:39:14.424Z,45.03
2023-04-22T18:41:42.838Z,45.24
2023-04-22T18:44:11.777Z,44.96
2023-04-22T18:46:39.200Z,45.32
2023-04-22T18:49:07.408Z,45.43
2023-04-22T18:51:34.988Z,45.95
2023-04-22T18:54:02.734Z,46.52
2023-04-22T18:56:32.784Z,46.69
2023-04-22T18:59:00.343Z,44.46
2023-04-22T19:01:29.327Z,45.37
2023-04-22T19:03:57.012Z,44.54
2023-04-22T19:06:24.526Z,45.10
2023-04-22T19:08:52.940Z,45.86
2023-04-22T19:11:20.441Z,45.01
2023-04-22T19:13:47.973Z,44.65
2023-04-22T19:16:15.436Z,45.88
2023-04-22T19:18:44.736Z,45.19
2023-04-22T19:21:12.167Z,45.04
2023-04-22T19:23:40.698Z,43.48
2023-04-22T19:26:09.533Z,43.53
2023-04-22T19:28:37.023Z,44.44
2023-04-22T19:31:05.086Z,45.37
2023-04-22T19:33:32.957Z,44.10
2023-04-22T19:36:02.825Z,44.65
2023-04-22T19:38:30.656Z,44.69
2023-04-22T19:40:58.146Z,46.68
2023-04-22T19:43:26.305Z,46.49
2023-04-22T19:45:54.149Z,46.91
2023-04-22T19:48:22.193Z,45.47
2023-04-22T19:50:49.742Z,45.79
2023-04-22T19:53:19.868Z,45.73
2023-04-22T19:55:47.506Z,45.98
2023-04-22T19:58:15.693Z,46.48
2023-04-22T20:00:43.652Z,46.88
2023-04-22T20:03:14.368Z,47.16
2023-04-22T20:05:43.958Z,45.67
2023-04-22T20:08:14.486Z,45.93
2023-04-22T20:10:45.875Z,47.19
2023-04-22T20:13:13.511Z,48.16
2023-04-22T20:15:41.309Z,47.57
2023-04-22T20:18:09.370Z,46.08
2023-04-22T20:20:37.763Z,46.63
2023-04-22T20:23:10.324Z,46.64
2023-04-22T20:25:40.594Z,47.66
2023-04-22T20:28:10.698Z,45.96
2023-04-22T20:30:39.204Z,45.86
2023-04-22T20:33:07.285Z,45.51
2023-04-22T20:35:35.918Z,45.55
2023-04-22T20:38:04.495Z,46.73
2023-04-22T20:40:34.598Z,46.11
2023-04-22T20:43:03.311Z,45.79
2023-04-22T20:45:32.150Z,47.07
2023-04-22T20:47:59.675Z,45.82
2023-04-22T20:50:32.966Z,45.85
2023-04-22T20:53:01.001Z,45.93
2023-04-22T20:55:28.523Z,45.91
2023-04-22T20:57:56.049Z,46.25
2023-04-22T21:00:23.811Z,47.16
2023-04-22T21:02:53.697Z,47.49
2023-04-22T21:05:22.011Z,48.87
2023-04-22T21:07:51.976Z,47.08
2023-04-22T21:10:20.462Z,47.56
2023-04-22T21:12:48.465Z,45.99
2023-04-22T21:15:16.699Z,47.97
2023-04-22T21:17:51.672Z,47.53
2023-04-22T21:20:24.122Z,46.67
2023-04-22T21:22:52.872Z,46.25
2023-04-22T21:25:23.142Z,46.00
2023-04-22T21:27:51.024Z,47.69
2023-04-22T21:30:19.495Z,46.88
2023-04-22T21:32:47.007Z,47.05
2023-04-22T21:35:14.776Z,47.78
2023-04-22T21:37:43.686Z,47.83
2023-04-22T21:40:13.294Z,48.43
2023-04-22T21:42:41.637Z,46.87
2023-04-22T21:45:09.796Z,46.70
2023-04-22T21:47:37.250Z,46.92
2023-04-22T21:50:06.182Z,46.18
2023-04-22T21:52:33.673Z,46.33
2023-04-22T21:55:02.569Z,46.04
2023-04-22T21:57:30.145Z,46.25
2023-04-22T21:59:57.638Z,47.29
2023-04-22T22:02:26.628Z,46.37
2023-04-22T22:04:54.355Z,47.21
2023-04-22T22:07:22.033Z,47.68
2023-04-22T22:09:49.791Z,47.82
2023-04-22T22:12:18.681Z,48.34
2023-04-22T22:14:46.122Z,48.89
2023-04-22T22:17:13.644Z,47.23
2023-04-22T22:19:41.964Z,47.71
2023-04-22T22:22:09.446Z,48.68
2023-04-22T22:24:36.954Z,49.26
2023-04-22T22:27:05.392Z,48.13
2023-04-22T22:29:34.240Z,48.66
2023-04-22T22:32:01.865Z,48.83
2023-04-22T22:34:29.413Z,49.92
2023-04-22T22:36:56.853Z,49.11
2023-04-22T22:39:24.509Z,48.80
2023-04-22T22:41:51.914Z,47.97
2023-04-22T22:44:19.354Z,48.08
2023-04-22T22:46:48.129Z,47.50
2023-04-22T22:49:16.071Z,48.22
2023-04-22T22:51:43.742Z,49.16
2023-04-22T22:54:11.237Z,49.44
2023-04-22T22:56:39.093Z,48.52
2023-04-22T22:59:06.498Z,48.82
2023-04-22T23:01:34.163Z,48.03
2023-04-22T23:04:03.403Z,48.71
2023-04-22T23:06:31.940Z,48.86
2023-04-22T23:08:59.337Z,48.53
2023-04-22T23:11:26.770Z,48.61
2023-04-22T23:13:54.342Z,48.62
2023-04-22T23:16:22.199Z,49.10
2023-04-22T23:18:49.831Z,49.38
2023-04-22T23:21:20.426Z,49.27
2023-04-22T23:23:48.160Z,49.51
2023-04-22T23:26:16.124Z,49.76
2023-04-22T23:28:44.134Z,49.72
2023-04-22T23:31:11.860Z,49.46
2023-04-22T23:33:42.107Z,50.85
2023-04-22T23:36:10.839Z,49.49
2023-04-22T23:38:39.648Z,49.33
2023-04-22T23:41:07.530Z,49.69
2023-04-22T23:43:34.966Z,49.87
2023-04-22T23:46:02.423Z,50.18
2023-04-22T23:48:29.866Z,50.44
2023-04-22T23:50:57.294Z,50.37
2023-04-22T23:53:24.703Z,49.91
2023-04-22T23:55:54.158Z,49.77
2023-04-22T23:58:21.951Z,50.61
